Elizabeth City Cg Air Station Regional Airport
KECG : now visible

Airfield :











YOU CAN JOIN US ON...

 
LOGIN :

Register | Disclaimer

   EN    FR    IT 

 









Legend :    VFR   Marginal VFR   IFR   Intensive IFR   Very Intensive IFR
Visi :
Ceiling :
>= 8 km
>= 3000ft
5 to 8 km
1000 to 3000 ft
1500m to 5 km
500 to 1000 ft
800 to 1500m
200 to 500 ft
< 800m
< 200 ft
Symbols :   Thunderstorms  Fog  Heavy snow  Heavy precipitations  Wind > 20 kt






- Airport Elevation : 12 ft


KECG - Elizabeth City Cg Air Station Regional

CURRENT METAR :
  • 270235Z AUTO 26005KT 10SM OVC005 10/09 A2990 RMK AO2 T01000089

EXPIRED METARs :
  • 270219Z 25007KT 10SM OVC004 10/09 A2990 RMK AO2 T01000094
  • 270154Z 25006KT 5SM BR OVC003 10/09 A2989 RMK AO2 SLP121 T01000094
  • 270145Z 23005KT 2SM BR OVC003 10/09 A2989 RMK AO2 T01000089
  • 270115Z 21005KT 1 1/4SM BR OVC003 10/09 A2987 RMK AO2 T01000089
  • 270054Z 21004KT 2SM BR OVC003 10/09 A2986 RMK AO2 SLP111 T01000089
  • 262354Z AUTO 22006KT 1 3/4SM BR OVC003 10/09 A2986 RMK AO2 SLP111 T01000089 10111 20094 51009

TAF KECG
Valid from the 27 at 02:00 until the 28 at 00:00 UTC


270204Z 2702/2724 25006KT 5SM BR OVC003
FM270500 27004KT 1/2SM FG BKN003
FM271200 33005KT 4SM BR BKN007
FM271400 36006KT P6SM BKN020
FM271700 34009KT P6SM OVC040
KZDC FIR / North America



MET'MAP, your aeronautical weather chart ! - Copyright ORBIFLY December 2007 - Disclaimer

ORBIFLY MET'MAP TEAM :

Programming & Development : Alexandra Zaïnal
Concept & original design : Baudouin d'Aumeries
Assistance for programming : Marc-Olivier Méhu
Technical & hardware support : Manuel Goepfert

Contact : metmap@orbifly.com




SOURCES & CREDITS :

   NOAA       Earth
Advisory